Terminal Aerodrome Forecast
Issued by NWS Springfield, MO

Home | Current Version | Previous Version | Text Only | Print | Product List | Glossary On
Versions: 1 2 3 4 5 6 7 8 9 10 11 12 13 14 15
465
FTUS43 KSGF 071138
TAFSGF
TAF
KSGF 071138Z 0712/0812 19010KT P6SM SCT250 WS012/24040KT
     FM071500 24012G20KT P6SM SCT250
     FM071800 27015G23KT P6SM SCT250
     FM080000 29010KT P6SM BKN250
     FM080500 30013KT P6SM OVC100 WS020/32040KT
     FM080900 32013G20KT P6SM OVC050 WS020/32040KT=

USA.gov is the U.S. government's official web portal to all federal, state and local government web resources and services.